Time;durP1;ratioP1;P1;durP2;ratioP2;P2;SDS_P1;SDS_P2;PMS_P1;PMS_P2;Temp;Humidity;BMP_temperature;BMP_pressure;BME280_temperature;BME280_humidity;BME280_pressure;Samples;Min_cycle;Max_cycle;Signal;HPM_P1;HPM_P2
2023/12/05 00:00:13;;;;;;;43.00;19.70;;;;;;;-4.57;73.98;100885.22;106193;1288;59137;-58
2023/12/05 00:02:59;;;;;;;46.80;21.00;;;;;;;-4.65;73.84;100887.50;106169;1288;60012;-57
2023/12/05 00:05:44;;;;;;;;;;;;;;;-4.70;73.81;100888.83;106188;1288;73548;-58
2023/12/05 00:08:30;;;;;;;43.00;20.10;;;;;;;-4.71;73.89;100884.88;106124;1288;67516;-58
2023/12/05 00:11:17;;;;;;;43.40;20.80;;;;;;;-4.73;73.74;100881.77;106140;1289;71366;-58
2023/12/05 00:14:03;;;;;;;41.70;20.60;;;;;;;-4.73;73.78;100883.12;106145;1288;59909;-58
2023/12/05 00:16:49;;;;;;;44.70;21.60;;;;;;;-4.71;73.89;100884.37;106155;1288;59059;-58
2023/12/05 00:19:35;;;;;;;43.30;19.80;;;;;;;-4.69;73.83;100885.33;106123;1288;73875;-58
2023/12/05 00:22:22;;;;;;;;;;;;;;;-4.70;73.83;100878.21;106205;1288;66835;-57
2023/12/05 00:25:09;;;;;;;42.00;18.00;;;;;;;-4.73;73.74;100872.55;106033;1292;72897;-57
2023/12/05 00:27:55;;;;;;;38.10;18.10;;;;;;;-4.74;73.68;100869.61;106151;1288;58923;-57
2023/12/05 00:30:40;;;;;;;;;;;;;;;-4.75;73.73;100867.03;106206;1291;58901;-58
2023/12/05 00:33:26;;;;;;;40.00;18.90;;;;;;;-4.76;73.66;100870.84;106061;1288;73978;-56
2023/12/05 00:36:13;;;;;;;43.80;20.30;;;;;;;-4.77;73.74;100873.84;104846;1288;67148;-56
2023/12/05 00:38:59;;;;;;;35.70;18.10;;;;;;;-4.80;73.71;100869.98;104869;1288;71214;-57
2023/12/05 00:41:46;;;;;;;44.70;20.90;;;;;;;-4.83;73.77;100869.81;104876;1288;61119;-57
2023/12/05 00:44:33;;;;;;;45.60;21.70;;;;;;;-4.85;73.78;100870.08;104892;1288;61206;-57
2023/12/05 00:47:19;;;;;;;55.00;23.00;;;;;;;-4.84;73.78;100872.61;104865;1288;73261;-56
2023/12/05 00:50:06;;;;;;;52.90;23.30;;;;;;;-4.85;73.66;100865.16;104839;1288;67297;-57
2023/12/05 00:52:52;;;;;;;49.70;22.20;;;;;;;-4.87;73.77;100869.61;106183;1288;71167;-58
2023/12/05 00:55:38;;;;;;;52.50;23.40;;;;;;;-4.90;73.76;100870.52;106206;1288;58418;-57
2023/12/05 00:58:24;;;;;;;;;;;;;;;-4.88;74.03;100867.70;106081;1288;60032;-58
2023/12/05 01:01:10;;;;;;;46.60;22.00;;;;;;;-4.87;73.89;100869.78;106155;1289;73387;-57
2023/12/05 01:03:56;;;;;;;;;;;;;;;-4.87;73.84;100873.52;106207;1288;67377;-58
2023/12/05 01:06:43;;;;;;;48.50;21.40;;;;;;;-4.85;74.06;100871.23;106176;1288;72299;-57
2023/12/05 01:09:29;;;;;;;50.90;21.70;;;;;;;-4.85;73.71;100871.55;106198;1288;59209;-56
2023/12/05 01:12:15;;;;;;;;;;;;;;;-4.85;73.77;100867.70;106227;1288;60718;-58
2023/12/05 01:15:01;;;;;;;57.50;21.80;;;;;;;-4.85;73.88;100863.52;106167;1288;74673;-58
2023/12/05 01:17:46;;;;;;;;;;;;;;;-4.86;73.81;100862.96;106179;1288;68237;-57
2023/12/05 01:20:33;;;;;;;51.40;22.40;;;;;;;-4.87;73.84;100860.06;106106;1288;72611;-57
2023/12/05 01:23:19;;;;;;;51.10;21.80;;;;;;;-4.88;73.82;100861.00;106207;1288;59513;-58
2023/12/05 01:26:05;;;;;;;46.40;21.00;;;;;;;-4.90;74.21;100859.39;106171;1288;59888;-57
2023/12/05 01:28:51;;;;;;;43.30;21.30;;;;;;;-4.94;73.91;100853.97;106193;1291;73197;-58
2023/12/05 01:31:37;;;;;;;45.70;21.70;;;;;;;-4.98;73.84;100852.10;106181;1288;69279;-58
2023/12/05 01:34:23;;;;;;;;;;;;;;;-5.00;73.77;100847.80;106065;1288;72015;-57
2023/12/05 01:37:09;;;;;;;50.10;22.30;;;;;;;-5.05;73.95;100847.37;106162;1288;59345;-58
2023/12/05 01:39:55;;;;;;;;;;;;;;;-5.08;73.85;100841.48;106255;1288;59456;-58
2023/12/05 01:42:41;;;;;;;49.30;20.70;;;;;;;-5.10;73.89;100844.45;106052;1291;73253;-57
2023/12/05 01:45:27;;;;;;;45.80;21.40;;;;;;;-5.11;73.89;100842.90;106180;1288;67391;-58
2023/12/05 01:48:14;;;;;;;43.80;19.90;;;;;;;-5.12;73.90;100845.16;106122;1288;72504;-58
2023/12/05 01:51:02;;;;;;;43.30;19.80;;;;;;;-5.14;73.97;100850.77;106213;1288;59029;-56
2023/12/05 01:53:48;;;;;;;41.30;20.40;;;;;;;-5.16;73.82;100845.96;106166;1288;59448;-57
2023/12/05 01:56:35;;;;;;;47.90;20.40;;;;;;;-5.19;73.90;100844.48;106169;1288;73338;-57
2023/12/05 01:59:22;;;;;;;43.60;20.40;;;;;;;-5.19;73.90;100843.98;106168;1289;67173;-57
2023/12/05 02:02:08;;;;;;;41.00;18.80;;;;;;;-5.18;73.86;100849.42;106172;1288;72078;-57
2023/12/05 02:04:53;;;;;;;;;;;;;;;-5.18;74.03;100849.23;106196;1288;59337;-56
2023/12/05 02:07:40;;;;;;;36.80;17.70;;;;;;;-5.18;73.88;100849.58;106141;1288;59776;-57
2023/12/05 02:10:27;;;;;;;41.30;19.60;;;;;;;-5.20;73.79;100851.16;106098;1288;74052;-58
2023/12/05 02:13:13;;;;;;;;;;;;;;;-5.21;73.91;100849.64;106185;1290;68923;-57
2023/12/05 02:16:10;;;;;;;53.20;21.70;;;;;;;-5.21;73.88;100856.52;106096;1288;71394;-58
2023/12/05 02:19:37;;;;;;;41.90;19.60;;;;;;;-5.20;73.99;100849.47;106200;1288;59264;-58
2023/12/05 02:22:36;;;;;;;48.80;22.60;;;;;;;-5.20;73.96;100845.66;106192;1288;59308;-57
2023/12/05 02:25:46;;;;;;;39.60;19.90;;;;;;;-5.16;73.99;100844.80;106175;1288;74478;-57
2023/12/05 02:28:33;;;;;;;39.40;18.50;;;;;;;-5.18;73.84;100845.54;106163;1289;67325;-57
2023/12/05 02:31:19;;;;;;;47.40;22.40;;;;;;;-5.20;73.92;100844.11;106157;1290;71295;-57
2023/12/05 02:34:05;;;;;;;48.80;22.50;;;;;;;-5.21;73.84;100843.54;106149;1289;59469;-56
2023/12/05 02:37:14;;;;;;;48.80;22.50;;;;;;;-5.22;74.21;100844.70;87778;1291;10002165;-57
2023/12/05 02:41:03;;;;;;;52.60;25.40;;;;;;;-5.21;74.06;100841.87;84215;1286;20072007;-58
2023/12/05 02:43:57;;;;;;;50.10;23.40;;;;;;;-5.18;74.11;100841.68;106305;1289;59174;-56
2023/12/05 02:46:44;;;;;;;45.50;23.20;;;;;;;-5.17;74.02;100841.73;106417;1286;59467;-58
2023/12/05 02:49:30;;;;;;;53.40;24.50;;;;;;;-5.17;74.09;100839.73;106406;1286;73153;-57
2023/12/05 02:52:16;;;;;;;;;;;;;;;-5.15;74.03;100837.64;106413;1286;67416;-57
2023/12/05 02:55:03;;;;;;;42.10;21.20;;;;;;;-5.12;74.19;100838.27;106182;1286;210944;-58
2023/12/05 02:57:49;;;;;;;47.70;22.60;;;;;;;-5.09;74.17;100839.26;106330;1287;60181;-57
2023/12/05 03:00:34;;;;;;;;;;;;;;;-5.07;74.33;100835.16;106422;1288;59570;-57
2023/12/05 03:03:20;;;;;;;42.50;21.40;;;;;;;-5.11;74.18;100837.18;106419;1286;75162;-58
2023/12/05 03:06:06;;;;;;;;;;;;;;;-5.12;74.43;100835.59;106443;1286;67288;-55
2023/12/05 03:08:52;;;;;;;47.00;21.10;;;;;;;-5.16;74.24;100831.67;106375;1288;71340;-58
2023/12/05 03:11:38;;;;;;;47.20;22.40;;;;;;;-5.18;74.32;100834.61;106214;1293;59374;-57
2023/12/05 03:14:24;;;;;;;;;;;;;;;-5.22;74.30;100832.74;106433;1286;60226;-57
2023/12/05 03:17:10;;;;;;;51.20;23.30;;;;;;;-5.25;74.27;100834.13;106416;1286;74374;-57
2023/12/05 03:19:56;;;;;;;;;;;;;;;-5.28;74.15;100836.47;106368;1289;67452;-57
2023/12/05 03:22:42;;;;;;;50.80;23.60;;;;;;;-5.27;74.43;100830.30;106379;1286;71842;-58
2023/12/05 03:25:28;;;;;;;59.90;24.20;;;;;;;-5.29;74.26;100829.71;106443;1286;59194;-58
2023/12/05 03:28:14;;;;;;;;;;;;;;;-5.31;74.26;100830.79;106364;1286;59934;-57
2023/12/05 03:31:00;;;;;;;47.50;23.30;;;;;;;-5.36;74.45;100831.37;106406;1286;73399;-57
2023/12/05 03:33:46;;;;;;;;;;;;;;;-5.39;74.39;100831.38;106417;1286;68023;-57
2023/12/05 03:36:32;;;;;;;50.80;23.60;;;;;;;-5.47;74.65;100825.43;106371;1288;71420;-57
2023/12/05 03:39:18;;;;;;;50.60;23.40;;;;;;;-5.52;74.28;100817.95;106337;1286;59352;-58
2023/12/05 03:42:04;;;;;;;;;;;;;;;-5.55;74.34;100819.63;106357;1288;59298;-57
2023/12/05 03:44:51;;;;;;;48.60;24.50;;;;;;;-5.58;74.50;100823.33;106430;1286;73407;-57
2023/12/05 03:47:37;;;;;;;54.50;26.10;;;;;;;-5.65;74.48;100819.11;106417;1286;68182;-57
2023/12/05 03:50:23;;;;;;;47.40;23.30;;;;;;;-5.70;74.47;100821.53;106400;1286;72002;-58
2023/12/05 03:53:09;;;;;;;55.40;25.40;;;;;;;-5.74;74.69;100820.21;106449;1286;59374;-57
2023/12/05 03:55:55;;;;;;;49.10;22.70;;;;;;;-5.76;74.49;100822.11;106444;1287;59677;-58
2023/12/05 03:58:41;;;;;;;52.60;24.30;;;;;;;-5.77;74.55;100818.67;106464;1286;73402;-57
2023/12/05 04:01:27;;;;;;;58.70;24.90;;;;;;;-5.78;74.70;100814.61;106461;1286;67194;-58
2023/12/05 04:04:13;;;;;;;;;;;;;;;-5.81;74.42;100812.45;105892;1286;72440;-54
2023/12/05 04:06:59;;;;;;;51.80;23.40;;;;;;;-5.83;74.59;100807.62;105118;1286;61473;-56
2023/12/05 04:09:46;;;;;;;47.70;22.60;;;;;;;-5.87;74.40;100805.06;105117;1289;61555;-56
2023/12/05 04:12:33;;;;;;;51.60;25.60;;;;;;;-5.87;74.47;100801.86;105096;1286;77299;-53
2023/12/05 04:15:19;;;;;;;57.40;25.40;;;;;;;-5.87;74.73;100799.20;105108;1289;67543;-55
2023/12/05 04:18:06;;;;;;;57.20;25.60;;;;;;;-5.88;74.59;100799.13;105089;1288;71773;-56
2023/12/05 04:20:52;;;;;;;45.40;22.30;;;;;;;-5.89;74.61;100798.60;105123;1286;61407;-56
2023/12/05 04:23:40;;;;;;;51.10;24.80;;;;;;;-5.88;74.59;100800.64;105132;1290;61767;-56
2023/12/05 04:26:26;;;;;;;50.10;22.90;;;;;;;-5.85;75.09;100800.45;105082;1286;73239;-57
2023/12/05 04:29:12;;;;;;;55.70;25.90;;;;;;;-5.84;74.63;100798.70;105136;1290;67261;-55
2023/12/05 04:32:01;;;;;;;48.50;23.60;;;;;;;-5.84;74.54;100800.17;105124;1286;71266;-57
2023/12/05 04:34:48;;;;;;;52.10;25.80;;;;;;;-5.85;74.58;100798.10;105120;1287;61218;-57
2023/12/05 04:37:34;;;;;;;53.80;24.70;;;;;;;-5.87;74.65;100794.01;105140;1289;59748;-56
2023/12/05 04:40:20;;;;;;;51.20;24.80;;;;;;;-5.87;74.65;100801.90;105093;1286;73741;-56
2023/12/05 04:43:07;;;;;;;51.90;23.90;;;;;;;-5.85;74.72;100796.30;105099;1287;66210;-57
2023/12/05 04:45:53;;;;;;;48.70;24.20;;;;;;;-5.81;74.68;100800.88;105156;1286;71170;-57
2023/12/05 04:48:40;;;;;;;50.70;22.90;;;;;;;-5.76;74.66;100798.61;105160;1289;60912;-57
2023/12/05 04:51:26;;;;;;;48.60;25.20;;;;;;;-5.76;74.85;100801.14;105184;1287;63605;-57
2023/12/05 04:54:12;;;;;;;52.40;24.60;;;;;;;-5.72;74.99;100801.48;105137;1286;75975;-55
2023/12/05 04:56:58;;;;;;;54.70;23.80;;;;;;;-5.71;74.97;100805.05;105105;1289;66217;-56
2023/12/05 04:59:45;;;;;;;49.20;23.10;;;;;;;-5.69;74.82;100807.86;105127;1290;72034;-56
2023/12/05 05:02:31;;;;;;;47.50;22.20;;;;;;;-5.70;74.85;100806.30;105088;1290;62188;-57
2023/12/05 05:05:17;;;;;;;56.10;23.10;;;;;;;-5.70;74.78;100804.77;105126;1288;59240;-57
2023/12/05 05:08:04;;;;;;;42.80;21.00;;;;;;;-5.68;74.70;100806.86;105062;1287;73358;-52
2023/12/05 05:10:50;;;;;;;47.20;22.80;;;;;;;-5.67;74.86;100807.95;105041;1290;67298;-57
2023/12/05 05:13:36;;;;;;;50.50;22.60;;;;;;;-5.64;74.81;100809.60;105111;1290;72459;-56
2023/12/05 05:16:23;;;;;;;52.60;23.70;;;;;;;-5.65;74.71;100811.26;105115;1287;61137;-56
2023/12/05 05:19:09;;;;;;;52.10;23.80;;;;;;;-5.67;74.61;100805.73;105131;1287;61333;-57
2023/12/05 05:21:55;;;;;;;51.80;24.80;;;;;;;-5.68;74.90;100807.55;105109;1289;73744;-56
2023/12/05 05:24:42;;;;;;;51.80;24.80;;;;;;;-5.72;74.91;100801.67;105078;1289;67275;-56
2023/12/05 05:27:28;;;;;;;47.00;23.10;;;;;;;-5.71;74.84;100800.38;105119;1291;70421;-55
2023/12/05 05:30:14;;;;;;;50.10;25.10;;;;;;;-5.65;74.72;100799.99;105132;1290;61125;-56
2023/12/05 05:33:01;;;;;;;49.60;24.60;;;;;;;-5.62;74.90;100800.30;105120;1287;61266;-57
2023/12/05 05:35:47;;;;;;;45.50;23.00;;;;;;;-5.63;75.06;100798.42;105180;1288;73224;-57
2023/12/05 05:38:34;;;;;;;48.40;23.30;;;;;;;-5.64;74.81;100798.35;105111;1291;67228;-53
2023/12/05 05:41:20;;;;;;;47.70;23.00;;;;;;;-5.62;74.87;100798.98;105033;1291;71253;-56
2023/12/05 05:44:06;;;;;;;42.70;21.50;;;;;;;-5.58;75.04;100796.14;105132;1287;61226;-56
2023/12/05 05:46:53;;;;;;;47.00;22.60;;;;;;;-5.60;74.89;100790.81;105075;1288;61160;-56
2023/12/05 05:49:39;;;;;;;43.50;20.70;;;;;;;-5.62;74.78;100791.55;105058;1289;73307;-56
2023/12/05 05:52:26;;;;;;;49.20;24.30;;;;;;;-5.66;74.75;100791.06;105104;1286;67288;-56
2023/12/05 05:55:13;;;;;;;45.50;22.30;;;;;;;-5.61;74.91;100793.27;105077;1286;71057;-56
2023/12/05 05:57:59;;;;;;;47.80;22.90;;;;;;;-5.64;74.80;100798.84;106344;1288;58923;-57
2023/12/05 06:00:45;;;;;;;46.40;23.00;;;;;;;-5.68;75.07;100809.43;106450;1287;59155;-58
2023/12/05 06:03:31;;;;;;;47.60;22.80;;;;;;;-5.69;74.87;100805.64;106302;1289;74697;-57
2023/12/05 06:06:17;;;;;;;45.20;22.50;;;;;;;-5.69;74.80;100803.30;106442;1288;67530;-58
2023/12/05 06:09:04;;;;;;;52.30;24.10;;;;;;;-5.69;74.73;100801.48;106351;1288;71371;-58
2023/12/05 06:11:50;;;;;;;55.20;25.60;;;;;;;-5.71;74.83;100801.20;106359;1288;59006;-58
2023/12/05 06:14:36;;;;;;;53.30;25.80;;;;;;;-5.75;74.82;100803.00;106320;1287;60242;-57
2023/12/05 06:17:22;;;;;;;58.50;26.40;;;;;;;-5.77;74.76;100810.95;106469;1288;74977;-58
2023/12/05 06:20:08;;;;;;;53.10;25.50;;;;;;;-5.80;74.85;100810.45;106426;1286;68588;-57
2023/12/05 06:22:54;;;;;;;51.10;24.90;;;;;;;-5.82;74.82;100809.88;106402;1288;73372;-56
2023/12/05 06:25:40;;;;;;;52.00;26.10;;;;;;;-5.82;74.86;100810.02;106371;1289;59408;-58
2023/12/05 06:28:26;;;;;;;54.40;24.90;;;;;;;-5.85;74.88;100812.89;106299;1288;59053;-58
2023/12/05 06:31:12;;;;;;;;;;;;;;;-5.88;74.85;100810.23;106285;1289;73292;-57
2023/12/05 06:34:01;;;;;;;54.90;25.70;;;;;;;-5.91;74.87;100820.15;106289;1289;68866;-58
2023/12/05 06:36:47;;;;;;;56.70;25.00;;;;;;;-5.94;74.77;100820.52;106343;1287;71592;-57
2023/12/05 06:39:33;;;;;;;54.00;24.10;;;;;;;-5.95;74.89;100815.41;106319;1288;59307;-57
2023/12/05 06:42:20;;;;;;;53.30;24.20;;;;;;;-5.96;74.86;100815.88;106385;1288;60415;-56
2023/12/05 06:45:06;;;;;;;55.10;25.70;;;;;;;-5.98;74.93;100814.39;106343;1288;74229;-58
2023/12/05 06:47:52;;;;;;;51.90;25.10;;;;;;;-6.00;74.81;100823.73;106350;1288;68338;-58
2023/12/05 06:50:38;;;;;;;55.30;25.40;;;;;;;-6.01;74.84;100826.02;106389;1288;71160;-58
2023/12/05 06:53:24;;;;;;;58.00;28.00;;;;;;;-6.02;74.84;100824.62;106206;1288;59271;-58
2023/12/05 06:56:11;;;;;;;62.20;28.20;;;;;;;-6.00;74.90;100822.02;106304;1288;59099;-58
2023/12/05 06:59:00;;;;;;;56.80;26.70;;;;;;;-5.98;75.00;100824.48;106219;1289;73391;-58
2023/12/05 07:01:46;;;;;;;64.10;28.00;;;;;;;-5.96;75.10;100823.21;106258;1288;67207;-58
2023/12/05 07:04:32;;;;;;;59.90;27.30;;;;;;;-5.96;74.99;100821.89;106284;1288;71312;-58
2023/12/05 07:07:18;;;;;;;;;;;;;;;-5.97;75.07;100815.65;106287;1288;59295;-58
2023/12/05 07:10:05;;;;;;;65.40;29.80;;;;;;;-5.97;75.25;100812.80;106221;1288;59179;-58
2023/12/05 07:12:51;;;;;;;62.30;28.30;;;;;;;-5.98;75.08;100820.98;106229;1288;74138;-58
2023/12/05 07:15:37;;;;;;;;;;;;;;;-5.95;75.07;100817.44;106280;1289;67713;-59
2023/12/05 07:18:23;;;;;;;76.30;31.70;;;;;;;-5.87;75.21;100819.32;106277;1287;72623;-56
2023/12/05 07:21:10;;;;;;;90.00;34.70;;;;;;;-5.82;75.09;100816.08;106217;1288;59218;-59
2023/12/05 07:23:56;;;;;;;76.90;32.00;;;;;;;-5.77;75.19;100819.02;106286;1288;59273;-59
2023/12/05 07:26:43;;;;;;;73.80;30.00;;;;;;;-5.73;75.21;100819.58;106233;1288;74330;-59
2023/12/05 07:29:29;;;;;;;69.30;29.20;;;;;;;-5.67;75.18;100814.96;106253;1288;66649;-58
2023/12/05 07:32:15;;;;;;;;;;;;;;;-5.61;75.09;100810.27;106286;1289;73618;-59
2023/12/05 07:35:01;;;;;;;64.60;28.50;;;;;;;-5.56;75.14;100802.98;106285;1289;58924;-59
2023/12/05 07:37:48;;;;;;;60.90;27.70;;;;;;;-5.55;75.10;100803.84;106177;1288;58917;-58
2023/12/05 07:40:35;;;;;;;67.10;29.90;;;;;;;-5.53;75.39;100809.17;106202;1288;73208;-59
2023/12/05 07:43:21;;;;;;;;;;;;;;;-5.47;75.36;100808.96;106200;1288;67158;-58
2023/12/05 07:46:07;;;;;;;57.90;25.70;;;;;;;-5.35;75.32;100806.39;106248;1288;71849;-59
2023/12/05 07:48:53;;;;;;;64.20;26.40;;;;;;;-5.11;75.53;100806.44;106177;1288;59515;-58
2023/12/05 07:51:40;;;;;;;65.30;29.20;;;;;;;-4.90;75.47;100801.06;106188;1291;58964;-57
2023/12/05 07:54:25;;;;;;;;;;;;;;;-4.80;75.50;100798.51;106255;1289;73788;-58
2023/12/05 07:57:11;;;;;;;65.50;28.60;;;;;;;-4.74;75.40;100803.02;106276;1288;67825;-59
2023/12/05 07:59:59;;;;;;;;;;;;;;;-4.70;75.41;100801.89;106255;1288;70438;-59
2023/12/05 08:02:46;;;;;;;61.00;26.70;;;;;;;-4.66;75.58;100802.89;106212;1288;59396;-59
2023/12/05 08:05:33;;;;;;;58.30;26.80;;;;;;;-4.54;75.70;100805.29;106259;1289;58952;-58
2023/12/05 08:08:19;;;;;;;66.10;28.30;;;;;;;-4.46;75.64;100801.27;106218;1288;74123;-59
2023/12/05 08:11:05;;;;;;;;;;;;;;;-4.39;75.65;100802.48;32527;1289;10002163;-59
2023/12/05 08:13:51;;;;;;;60.30;28.30;;;;;;;-4.34;75.68;100804.06;106168;1287;58835;-59
2023/12/05 08:16:39;;;;;;;65.30;28.80;;;;;;;-4.23;75.84;100807.27;106250;1289;59163;-59
2023/12/05 08:19:25;;;;;;;57.60;28.40;;;;;;;-4.03;75.86;100808.16;106228;1288;72192;-59
2023/12/05 08:22:11;;;;;;;55.20;28.30;;;;;;;-3.94;75.91;100812.25;106227;1289;68172;-59
2023/12/05 08:24:57;;;;;;;;;;;;;;;-3.88;76.02;100812.02;106180;1288;71168;-59
2023/12/05 08:27:43;;;;;;;64.10;28.50;;;;;;;-3.71;76.09;100808.77;106228;1288;59250;-58
2023/12/05 08:30:30;;;;;;;59.30;30.00;;;;;;;-3.33;76.47;100806.66;106241;1288;58982;-59
2023/12/05 08:33:18;;;;;;;60.00;30.30;;;;;;;-2.98;76.40;100805.46;106305;1287;73400;-59
2023/12/05 08:36:04;;;;;;;70.10;33.40;;;;;;;-2.63;76.35;100808.88;106169;1289;67242;-59
2023/12/05 08:38:50;;;;;;;63.30;31.90;;;;;;;-2.24;76.75;100807.72;106274;1289;71416;-58
2023/12/05 08:41:36;;;;;;;56.70;29.60;;;;;;;-1.93;76.84;100806.67;106262;1288;59257;-58
2023/12/05 08:44:22;;;;;;;50.60;29.30;;;;;;;-1.60;76.85;100811.61;106216;1288;60128;-59
2023/12/05 08:47:08;;;;;;;58.40;30.00;;;;;;;-1.40;76.86;100813.13;106272;1291;74473;-59
2023/12/05 08:49:54;;;;;;;59.50;28.70;;;;;;;-1.21;76.64;100813.48;106249;1287;68563;-58
2023/12/05 08:52:44;;;;;;;55.10;29.20;;;;;;;-0.98;76.59;100822.03;106245;1288;72553;-59
2023/12/05 08:55:30;;;;;;;56.40;29.80;;;;;;;-0.88;76.49;100826.23;106164;1289;59562;-58
2023/12/05 08:58:16;;;;;;;61.50;30.40;;;;;;;-0.72;76.86;100829.14;106151;1288;59619;-59
2023/12/05 09:01:02;;;;;;;63.80;32.50;;;;;;;-0.54;76.71;100822.77;106200;1289;73605;-59
2023/12/05 09:03:49;;;;;;;48.40;27.60;;;;;;;-0.08;77.29;100823.52;106269;1288;67460;-59
2023/12/05 09:06:35;;;;;;;51.60;28.30;;;;;;;0.43;77.45;100829.41;106239;1286;71056;-57
2023/12/05 09:09:21;;;;;;;54.50;31.00;;;;;;;0.76;76.84;100826.56;106289;1289;58904;-56
2023/12/05 09:12:08;;;;;;;50.70;29.00;;;;;;;0.83;76.57;100827.08;106011;1289;60538;-53
2023/12/05 09:14:54;;;;;;;48.70;28.30;;;;;;;0.61;77.12;100827.86;106092;1288;74603;-53
2023/12/05 09:17:40;;;;;;;54.50;31.10;;;;;;;0.76;77.02;100827.77;106193;1288;68516;-56
2023/12/05 09:20:26;;;;;;;51.70;29.00;;;;;;;0.85;77.27;100824.95;106225;1289;71816;-58
2023/12/05 09:23:12;;;;;;;55.20;31.20;;;;;;;0.78;77.00;100823.22;106135;1289;59070;-58
2023/12/05 09:25:58;;;;;;;53.30;30.30;;;;;;;0.55;76.91;100821.09;106157;1288;59279;-58
2023/12/05 09:28:44;;;;;;;54.20;30.30;;;;;;;0.31;76.52;100823.98;106180;1289;73351;-57
2023/12/05 09:31:31;;;;;;;53.70;30.00;;;;;;;0.23;76.64;100819.34;106183;1289;68603;-57
2023/12/05 09:34:16;;;;;;;48.90;28.00;;;;;;;0.20;76.69;100822.33;106190;1291;72089;-57
2023/12/05 09:37:03;;;;;;;50.20;29.40;;;;;;;0.05;76.11;100820.69;106165;1287;59080;-57
2023/12/05 09:39:49;;;;;;;51.30;29.00;;;;;;;-0.08;76.67;100821.85;106104;1291;59363;-58
2023/12/05 09:42:36;;;;;;;53.20;30.20;;;;;;;-0.18;76.41;100816.27;106100;1287;73952;-56
2023/12/05 09:45:24;;;;;;;51.20;29.00;;;;;;;-0.37;76.00;100811.29;106176;1289;67544;-57
2023/12/05 09:48:11;;;;;;;58.50;31.40;;;;;;;-0.64;75.84;100807.39;106032;1289;73007;-57
2023/12/05 09:50:57;;;;;;;55.00;31.10;;;;;;;-0.83;75.66;100807.30;106136;1289;59131;-57
2023/12/05 09:53:45;;;;;;;60.70;31.50;;;;;;;-1.02;76.02;100800.92;106201;1291;60046;-57
2023/12/05 09:56:31;;;;;;;59.60;31.30;;;;;;;-1.17;75.84;100800.07;106158;1288;73353;-57
2023/12/05 09:59:18;;;;;;;63.10;32.10;;;;;;;-1.36;75.20;100790.63;106223;1291;67538;-57
2023/12/05 10:02:05;;;;;;;59.80;31.20;;;;;;;-1.49;75.54;100795.92;106072;1291;71492;-57
2023/12/05 10:04:59;;;;;;;55.30;30.60;;;;;;;-1.55;75.48;100792.67;106120;1293;59334;-57
2023/12/05 10:07:49;;;;;;;57.00;30.60;;;;;;;-1.59;75.69;100797.94;106177;1288;60100;-57
2023/12/05 10:10:38;;;;;;;62.40;32.20;;;;;;;-1.62;75.15;100799.54;106181;1291;74211;-56
2023/12/05 10:13:25;;;;;;;58.00;31.00;;;;;;;-1.67;75.13;100793.77;106171;1291;68497;-57
2023/12/05 10:16:11;;;;;;;61.20;33.20;;;;;;;-1.61;75.52;100789.25;106220;1288;72601;-57
2023/12/05 10:18:57;;;;;;;;;;;;;;;-1.56;75.38;100784.86;106163;1290;59294;-56
2023/12/05 10:21:44;;;;;;;58.90;32.80;;;;;;;-1.56;75.14;100783.84;106194;1288;59326;-57
2023/12/05 10:24:43;;;;;;;62.10;32.80;;;;;;;-1.53;75.25;100782.06;106186;1291;74527;-57
2023/12/05 10:27:29;;;;;;;65.60;33.40;;;;;;;-1.46;74.84;100777.77;106119;1289;67061;-57
2023/12/05 10:30:30;;;;;;;67.80;35.80;;;;;;;-1.39;74.86;100771.93;106152;1289;71302;-55
2023/12/05 10:33:17;;;;;;;67.10;34.60;;;;;;;-1.40;74.91;100769.70;106206;1289;59297;-56
2023/12/05 10:36:11;;;;;;;69.10;35.60;;;;;;;-1.23;75.25;100772.80;106172;1289;59213;-56
2023/12/05 10:38:57;;;;;;;67.30;34.70;;;;;;;-1.02;75.24;100769.27;106094;1293;73774;-58
2023/12/05 10:41:43;;;;;;;74.80;36.40;;;;;;;-0.89;75.16;100764.94;106102;1288;68940;-57
2023/12/05 10:44:40;;;;;;;69.00;35.40;;;;;;;-0.79;75.08;100758.34;106128;1294;72091;-57
2023/12/05 10:47:26;;;;;;;66.80;35.90;;;;;;;-0.72;74.59;100754.52;106158;1288;59421;-56
2023/12/05 10:50:12;;;;;;;71.70;36.30;;;;;;;-0.63;74.73;100752.75;106195;1292;59534;-57
2023/12/05 10:52:59;;;;;;;59.60;33.60;;;;;;;-0.64;74.53;100751.54;106206;1287;74384;-57
2023/12/05 10:55:46;;;;;;;69.10;36.10;;;;;;;-0.69;74.37;100754.94;106170;1289;67389;-57
2023/12/05 10:58:32;;;;;;;65.40;35.50;;;;;;;-0.78;74.70;100753.64;106192;1288;73095;-57
2023/12/05 11:01:21;;;;;;;66.00;34.30;;;;;;;-0.89;73.55;100753.11;106230;1289;59135;-56
2023/12/05 11:04:07;;;;;;;65.10;36.20;;;;;;;-1.07;74.32;100752.20;106058;1291;60180;-57
2023/12/05 11:06:53;;;;;;;;;;;;;;;-1.10;74.23;100748.55;106050;1290;212118;-57
2023/12/05 11:09:42;;;;;;;;;;;;;;;-1.13;74.54;100742.54;106222;1290;68270;-57
2023/12/05 11:12:30;;;;;;;65.70;34.60;;;;;;;-1.10;73.38;100745.86;106178;1289;72566;-57
2023/12/05 11:15:21;;;;;;;66.60;36.20;;;;;;;-1.11;74.07;100742.27;106167;1289;59193;-57
2023/12/05 11:18:25;;;;;;;70.30;36.50;;;;;;;-1.14;73.88;100741.48;106176;1289;59639;-56
2023/12/05 11:21:43;;;;;;;66.00;35.50;;;;;;;-1.20;73.95;100737.06;106163;1292;73292;-57
2023/12/05 11:24:47;;;;;;;60.90;32.40;;;;;;;-1.30;74.18;100740.61;106214;1288;68089;-57
2023/12/05 11:27:40;;;;;;;70.20;35.40;;;;;;;-1.33;73.90;100741.35;106199;1292;71123;-56
2023/12/05 11:30:35;;;;;;;67.90;35.40;;;;;;;-1.35;73.93;100737.56;106161;1291;58918;-57
2023/12/05 11:33:53;;;;;;;72.70;38.00;;;;;;;-1.31;73.77;100735.67;106226;1288;59673;-57
2023/12/05 11:37:09;;;;;;;72.60;36.90;;;;;;;-1.22;73.97;100735.63;106223;1289;73405;-56
2023/12/05 11:39:55;;;;;;;;;;;;;;;-1.18;73.62;100736.10;106236;1291;69226;-57
2023/12/05 11:43:03;;;;;;;74.00;37.50;;;;;;;-1.20;72.87;100734.20;106122;1291;71348;-57
2023/12/05 11:45:57;;;;;;;74.00;37.20;;;;;;;-1.31;72.51;100734.98;106204;1288;58990;-55
2023/12/05 11:48:43;;;;;;;73.50;36.10;;;;;;;-1.36;73.44;100734.15;106226;1289;60399;-57
2023/12/05 11:51:33;;;;;;;73.10;37.90;;;;;;;-1.40;73.28;100733.00;106257;1292;73331;-57
2023/12/05 11:54:22;;;;;;;61.80;32.60;;;;;;;-1.47;73.05;100726.68;106160;1286;67386;-57
2023/12/05 11:57:18;;;;;;;71.50;36.00;;;;;;;-1.54;72.94;100724.09;106299;1286;70582;-56
2023/12/05 12:00:07;;;;;;;62.50;33.20;;;;;;;-1.58;73.50;100719.23;106339;1287;59346;-57
2023/12/05 12:02:57;;;;;;;76.10;37.40;;;;;;;-1.52;73.50;100723.48;106321;1288;59971;-57
2023/12/05 12:05:46;;;;;;;70.90;35.00;;;;;;;-1.45;73.49;100722.84;106318;1287;74969;-57
2023/12/05 12:08:32;;;;;;;68.70;35.40;;;;;;;-1.28;73.72;100725.96;106343;1289;67318;-57
2023/12/05 12:11:22;;;;;;;65.60;36.10;;;;;;;-1.16;73.14;100722.14;106287;1286;73071;-57
2023/12/05 12:14:19;;;;;;;69.80;36.70;;;;;;;-1.11;72.99;100718.23;106360;1291;59244;-57
2023/12/05 12:17:05;;;;;;;68.40;35.40;;;;;;;-0.87;73.58;100715.45;106301;1287;59591;-57
2023/12/05 12:19:51;;;;;;;65.20;32.20;;;;;;;-0.73;72.95;100708.61;105300;1286;73905;-59
2023/12/05 12:22:38;;;;;;;71.90;37.60;;;;;;;-0.64;73.37;100704.14;105064;1286;67575;-58
2023/12/05 12:25:24;;;;;;;;;;;;;;;-0.45;73.08;100701.66;104993;1287;71701;-59
2023/12/05 12:28:28;;;;;;;63.70;35.50;;;;;;;-0.33;73.43;100699.95;104997;1289;61295;-57
2023/12/05 12:31:27;;;;;;;71.30;37.60;;;;;;;-0.29;71.71;100706.88;105020;1286;61176;-59
2023/12/05 12:34:26;;;;;;;71.40;38.20;;;;;;;-0.23;72.97;100706.52;104955;1286;73736;-59
2023/12/05 12:37:13;;;;;;;69.70;39.50;;;;;;;0.11;73.38;100706.29;105022;1289;67181;-58
2023/12/05 12:40:00;;;;;;;67.70;37.80;;;;;;;0.39;73.12;100698.23;104924;1286;72438;-59
2023/12/05 12:42:50;;;;;;;69.00;38.50;;;;;;;0.31;72.92;100698.36;105006;1291;60081;-59
2023/12/05 12:45:36;;;;;;;69.40;37.50;;;;;;;0.27;71.76;100695.38;105086;1291;61323;-59